Data for 11/23/2013

Time Sea-Level Adjusted Pressure Absolute Pressure Temperature Relative Humidity Dew Point   
(mb) (inHg) (mb) (inHg) (C) (F) (%) (C) (F)
00:05 1033 30.5 862 25.45 -8.7 16.3 78 -11.8 10.8
00:10 1033 30.5 862 25.45 -8.6 16.5 78 -11.8 10.8
00:15 1033 30.5 862 25.45 -8.8 16.2 79 -11.9 10.6
00:20 1033 30.5 862 25.45 -8.7 16.4 77 -11.9 10.5
00:25 1033 30.5 862 25.45 -8.6 16.6 78 -11.8 10.7
00:30 1033 30.5 862 25.45 -8.9 16 80 -11.8 10.8
00:35 1033 30.5 862 25.45 -9.1 15.6 80 -12 10.4
00:40 1033 30.5 862 25.45 -9.5 14.9 81 -12.1 10.2
00:45 1033 30.5 862 25.45 -9.8 14.3 82 -12.3 9.9
00:50 1033 30.5 862 25.45 -9.7 14.6 81 -12.3 9.9
00:55 1033 30.5 862 25.45 -9.7 14.5 82 -12.3 9.9
01:00 1033 30.5 862 25.45 -9.4 15.1 80 -12.2 10
01:05 1033 30.5 862 25.45 -9 15.8 79 -12 10.4
01:10 1033 30.5 862 25.45 -9.1 15.7 79 -12 10.3
01:15 1033 30.5 862 25.45 -9 15.7 79 -12.1 10.3
01:20 1033 30.5 862 25.45 -9 15.9 79 -12 10.4
01:25 1033 30.5 862 25.45 -9 15.9 79 -12 10.3
01:30 1033 30.5 862 25.45 -9.1 15.6 79 -12.1 10.2
01:35 1033 30.5 862 25.45 -9.4 15.2 80 -12.2 10
01:40 1033 30.5 862 25.45 -9.5 14.8 82 -12.1 10.2
01:45 1033 30.5 862 25.45 -9.1 15.6 80 -12 10.4
01:50 1033 30.5 862 25.45 -8.6 16.5 78 -11.8 10.7
01:55 1033 30.5 862 25.45 -8.7 16.3 78 -11.8 10.7
02:00 1033 30.5 862 25.45 -8.6 16.6 77 -11.9 10.7
02:05 1033 30.5 862 25.45 -8.3 17.1 76 -11.7 10.9
02:10 1033 30.5 862 25.45 -8.5 16.6 78 -11.8 10.8
02:15 1033 30.5 862 25.45 -8.9 16 78 -12.1 10.2
02:20 1033 30.5 862 25.45 -9.1 15.6 80 -12 10.4
02:25 1033 30.5 862 25.45 -9 15.8 78 -12.2 10.1
02:30 1033 30.5 862 25.45 -9 15.9 78 -12.2 10.1
02:35 1033 30.5 862 25.45 -8.7 16.4 77 -12.1 10.2
02:40 1033 30.5 862 25.45 -8.8 16.1 78 -11.9 10.5
02:45 1033 30.5 862 25.45 -8.9 16.1 77 -12.1 10.2
02:50 1033 30.5 862 25.45 -8.8 16.1 77 -12.1 10.2
02:55 1033 30.5 862 25.45 -8.6 16.5 76 -12.2 10.1
03:00 1033 30.5 862 25.45 -8.4 16.9 75 -12 10.4
03:05 1032 30.47 862 25.45 -8.6 16.6 76 -12 10.4
03:10 1032 30.47 862 25.45 -8.8 16.3 77 -12 10.3
03:15 1032 30.47 862 25.45 -9 15.8 78 -12.1 10.2
03:20 1032 30.47 862 25.45 -9.1 15.6 78 -12.3 9.9
03:25 1032 30.47 862 25.45 -8.9 16 77 -12.3 9.9
03:30 1032 30.47 862 25.45 -8.5 16.6 77 -11.9 10.5
03:35 1032 30.47 862 25.45 -8.5 16.8 76 -11.9 10.6
03:40 1032 30.47 861 25.43 -8.5 16.6 77 -11.9 10.6
03:45 1032 30.47 862 25.45 -8.7 16.4 77 -12 10.5
03:50 1032 30.47 861 25.43 -8.9 16 78 -12.1 10.2
03:55 1032 30.47 861 25.43 -9.1 15.5 78 -12.3 9.8
04:00 1032 30.47 862 25.45 -9.1 15.7 78 -12.3 9.9
04:05 1032 30.47 862 25.45 -9 15.9 78 -12.2 10.1
04:10 1032 30.47 862 25.45 -8.8 16.2 77 -12.1 10.2
04:15 1032 30.47 862 25.45 -8.5 16.7 75 -12.2 10
04:20 1032 30.47 862 25.45 -8.4 17 74 -12.1 10.1
04:25 1032 30.47 862 25.45 -8.3 17.1 74 -12.1 10.3
04:30 1033 30.5 862 25.45 -8.2 17.2 75 -11.9 10.5
04:35 1033 30.5 862 25.45 -8.2 17.2 75 -11.9 10.6
04:40 1033 30.5 862 25.45 -7.8 17.9 73 -11.9 10.6
04:45 1033 30.5 862 25.45 -7.9 17.9 73 -11.8 10.7
04:50 1033 30.5 862 25.45 -7.8 18 72 -11.9 10.6
04:55 1033 30.5 862 25.45 -7.9 17.7 73 -11.9 10.6
05:00 1033 30.5 862 25.45 -8.3 17 75 -12 10.3
05:05 1033 30.5 862 25.45 -8.7 16.4 76 -12.2 10.1
05:10 1033 30.5 862 25.45 -9 15.8 78 -12.2 10.1
05:15 1033 30.5 862 25.45 -8.9 16 78 -12 10.3
05:20 1033 30.5 862 25.45 -9.1 15.7 80 -12 10.4
05:25 1033 30.5 862 25.45 -8.6 16.4 80 -11.5 11.3
05:30 1032 30.47 862 25.45 -8.6 16.5 79 -11.7 11
05:35 1033 30.5 862 25.45 -8.6 16.5 78 -11.8 10.7
05:40 1033 30.5 862 25.45 -8.9 16.1 77 -12.1 10.2
05:45 1033 30.5 862 25.45 -9.4 15.1 77 -12.7 9.2
05:50 1033 30.5 862 25.45 -9.7 14.5 79 -12.8 9
05:55 1033 30.5 862 25.45 -9.8 14.3 81 -12.4 9.6
06:00 1033 30.5 862 25.45 -9.6 14.7 81 -12.3 9.8
06:05 1033 30.5 862 25.45 -9.6 14.7 79 -12.5 9.4
06:10 1032 30.47 862 25.45 -10.3 13.6 83 -12.7 9.2
06:15 1032 30.47 862 25.45 -10.2 13.7 83 -12.5 9.4
06:20 1032 30.47 861 25.43 -9.5 14.9 80 -12.4 9.7
06:25 1032 30.47 861 25.43 -9.4 15.1 79 -12.3 9.8
06:30 1032 30.47 861 25.43 -9.6 14.8 80 -12.4 9.7
06:35 1032 30.47 861 25.43 -9.4 15 78 -12.5 9.5
06:40 1032 30.47 861 25.43 -9.3 15.2 78 -12.5 9.5
06:45 1032 30.47 861 25.43 -9.6 14.8 79 -12.5 9.5
06:50 1032 30.47 861 25.43 -9.7 14.5 80 -12.5 9.5
06:55 1032 30.47 861 25.43 -9.5 14.9 78 -12.6 9.3
07:00 1032 30.47 861 25.43 -9.6 14.8 79 -12.6 9.3
07:05 1032 30.47 861 25.43 -9.7 14.5 79 -12.7 9.1
07:10 1032 30.47 861 25.43 -9.9 14.2 80 -12.8 9
07:15 1032 30.47 861 25.43 -10 14 80 -12.9 8.8
07:20 1032 30.47 861 25.43 -9.7 14.5 79 -12.7 9.2
07:25 1032 30.47 861 25.43 -9.8 14.3 81 -12.5 9.6
07:30 1032 30.47 861 25.43 -9.8 14.3 81 -12.4 9.6
07:35 1032 30.47 861 25.43 -9.4 15.1 80 -12.3 9.9
07:40 1032 30.47 861 25.43 -9 15.9 78 -12.2 10.1
07:45 1032 30.47 861 25.43 -9.4 15.2 82 -11.8 10.7
07:50 1032 30.47 861 25.43 -9.3 15.3 82 -11.8 10.8
07:55 1032 30.47 861 25.43 -8.8 16.2 78 -11.9 10.6
08:00 1032 30.47 861 25.43 -9.4 15 81 -12.2 10.1
08:05 1032 30.47 861 25.43 -10 14 82 -12.5 9.5
08:10 1032 30.47 861 25.43 -9.7 14.5 82 -12.2 10
08:15 1032 30.47 861 25.43 -9.2 15.4 78 -12.3 9.8
08:20 1032 30.47 861 25.43 -9.1 15.5 78 -12.2 10
08:25 1032 30.47 861 25.43 -9 15.8 78 -12.1 10.2
08:30 1032 30.47 861 25.43 -8.8 16.2 77 -12.2 10.1
08:35 1032 30.47 861 25.43 -8.8 16.3 75 -12.4 9.8
08:40 1032 30.47 861 25.43 -9.6 14.7 81 -12.3 9.8
08:45 1032 30.47 861 25.43 -9.3 15.3 79 -12.2 10
08:50 1032 30.47 861 25.43 -9 15.8 77 -12.3 9.9
08:55 1032 30.47 861 25.43 -8.8 16.2 76 -12.3 9.8
09:00 1032 30.47 861 25.43 -8.7 16.4 74 -12.4 9.6
09:05 1032 30.47 861 25.43 -8.3 17 73 -12.4 9.7
09:10 1032 30.47 861 25.43 -8.2 17.3 73 -12.2 10
09:15 1032 30.47 861 25.43 -8.2 17.2 72 -12.4 9.6
09:20 1032 30.47 861 25.43 -8.6 16.6 73 -12.6 9.3
09:25 1032 30.47 861 25.43 -8.6 16.5 73 -12.6 9.3
09:30 1032 30.47 861 25.43 -8.5 16.7 73 -12.6 9.3
09:35 1032 30.47 861 25.43 -8.5 16.8 72 -12.7 9.2
09:40 1032 30.47 861 25.43 -8.2 17.3 71 -12.6 9.3
09:45 1032 30.47 861 25.43 -8 17.7 70 -12.5 9.6
09:50 1032 30.47 861 25.43 -7.9 17.9 71 -12.2 10.1
09:55 1032 30.47 861 25.43 -8 17.7 72 -12.2 10.1
10:00 1032 30.47 861 25.43 -7.8 18 71 -12.2 10.1
10:05 1032 30.47 861 25.43 -7.6 18.3 71 -12 10.3
10:10 1032 30.47 861 25.43 -7.9 17.9 72 -12 10.4
10:15 1032 30.47 861 25.43 -7.6 18.2 72 -11.9 10.5
10:20 1032 30.47 861 25.43 -6.8 19.7 69 -11.6 11.1
10:25 1032 30.47 861 25.43 -6.2 20.8 67 -11.4 11.5
10:30 1032 30.47 861 25.43 -5.8 21.6 66 -11.2 11.8
10:35 1031 30.45 861 25.43 -5.6 22 66 -11 12.1
10:40 1032 30.47 861 25.43 -5.6 22 65 -11.1 12
10:45 1032 30.47 861 25.43 -5.2 22.6 65 -10.8 12.5
10:50 1031 30.45 861 25.43 -5.1 22.9 65 -10.7 12.8
10:55 1032 30.47 861 25.43 -4.9 23.2 64 -10.8 12.6
11:00 1031 30.45 861 25.43 -4.5 23.9 63 -10.4 13.2
11:05 1031 30.45 861 25.43 -4.5 23.9 64 -10.4 13.2
11:10 1031 30.45 860 25.4 -4.4 24.2 65 -10.1 13.9
11:15 1031 30.45 860 25.4 -4.1 24.6 62 -10.3 13.5
11:20 1031 30.45 860 25.4 -3.8 25.2 62 -10 14
11:25 1031 30.45 860 25.4 -3.5 25.7 60 -10.2 13.6
11:30 1031 30.45 860 25.4 -3.4 25.9 59 -10.3 13.5
11:35 1031 30.45 860 25.4 -3.2 26.3 59 -10.1 13.9
11:40 1031 30.45 860 25.4 -3.3 26.1 59 -10.2 13.6
11:45 1031 30.45 860 25.4 -3.5 25.7 61 -10 14
11:50 1031 30.45 860 25.4 -3.5 25.7 59 -10.3 13.4
11:55 1031 30.45 860 25.4 -3.3 26.1 60 -10 14
12:00 1031 30.45 860 25.4 -3.2 26.3 60 -10 14
12:05 1031 30.45 860 25.4 -2.9 26.7 59 -9.9 14.1
12:10 1031 30.45 860 25.4 -2.4 27.7 56 -10 14
12:15 1031 30.45 860 25.4 -2.7 27.1 58 -9.8 14.4
12:20 1030 30.42 860 25.4 -3.1 26.5 61 -9.6 14.7
12:25 1030 30.42 860 25.4 -3.2 26.2 59 -10.1 13.9
12:30 1030 30.42 860 25.4 -2.7 27.2 57 -10 14.1
12:35 1030 30.42 859 25.37 -2.7 27.1 59 -9.6 14.6
12:40 1030 30.42 859 25.37 -2.9 26.7 59 -9.9 14.2
12:45 1030 30.42 859 25.37 -2.8 26.9 60 -9.6 14.8
12:50 1030 30.42 859 25.37 -2.3 27.9 57 -9.6 14.7
12:55 1030 30.42 859 25.37 -1.8 28.8 56 -9.4 15
13:00 1030 30.42 859 25.37 -2 28.4 59 -8.9 15.9
13:05 1030 30.42 859 25.37 -1.8 28.8 58 -9.1 15.7
13:10 1030 30.42 859 25.37 -1.7 29 58 -8.9 16
13:15 1030 30.42 859 25.37 -1.4 29.5 55 -9.2 15.4
13:20 1030 30.42 859 25.37 -1.6 29.2 58 -8.7 16.4
13:25 1029 30.39 859 25.37 -1.9 28.5 57 -9.4 15
13:30 1029 30.39 859 25.37 -1.8 28.7 58 -9 15.9
13:35 1029 30.39 859 25.37 -1.7 28.9 57 -9.1 15.7
13:40 1029 30.39 859 25.37 -1.4 29.5 57 -8.8 16.2
13:45 1029 30.39 859 25.37 -1.3 29.6 56 -9 15.8
13:50 1029 30.39 859 25.37 -1.4 29.4 58 -8.6 16.5
13:55 1029 30.39 858 25.34 -1.3 29.7 58 -8.4 16.8
14:00 1029 30.39 858 25.34 -1.1 30 57 -8.7 16.4
14:05 1029 30.39 858 25.34 -1.3 29.7 59 -8.3 17.1
14:10 1029 30.39 858 25.34 -1.3 29.7 59 -8.4 16.9
14:15 1029 30.39 858 25.34 -1.2 29.9 58 -8.5 16.7
14:20 1029 30.39 858 25.34 -1 30.1 57 -8.5 16.7
14:25 1029 30.39 858 25.34 -0.9 30.4 57 -8.5 16.8
14:30 1029 30.39 858 25.34 -1.2 29.8 58 -8.4 16.9
14:35 1029 30.39 858 25.34 -1.5 29.2 59 -8.7 16.4
14:40 1029 30.39 858 25.34 -2 28.4 60 -8.7 16.4
14:45 1029 30.39 858 25.34 -1.8 28.7 60 -8.7 16.4
14:50 1029 30.39 858 25.34 -1.5 29.4 57 -9 15.8
14:55 1029 30.39 858 25.34 -1.2 29.9 58 -8.3 17
15:00 1029 30.39 858 25.34 -0.9 30.4 56 -8.7 16.4
15:05 1029 30.39 858 25.34 -1 30.1 57 -8.6 16.6
15:10 1028 30.36 858 25.34 -0.8 30.6 55 -8.8 16.2
15:15 1028 30.36 858 25.34 -0.4 31.3 53 -8.8 16.2
15:20 1028 30.36 858 25.34 -0.4 31.3 54 -8.6 16.5
15:25 1028 30.36 857 25.31 -0.7 30.8 54 -8.8 16.1
15:30 1028 30.36 857 25.31 -0.7 30.8 54 -8.8 16.2
15:35 1028 30.36 857 25.31 -0.8 30.6 55 -8.7 16.3
15:40 1028 30.36 857 25.31 -1.2 29.8 57 -8.6 16.5
15:45 1028 30.36 857 25.31 -0.9 30.3 57 -8.4 17
15:50 1028 30.36 857 25.31 -0.5 31.1 55 -8.4 16.8
15:55 1028 30.36 857 25.31 -0.3 31.5 56 -8.1 17.3
16:00 1028 30.36 857 25.31 -0.2 31.7 56 -8 17.6
16:05 1028 30.36 857 25.31 -0.4 31.4 59 -7.4 18.7
16:10 1028 30.36 857 25.31 -1.2 29.8 62 -7.5 18.5
16:15 1028 30.36 857 25.31 -1.5 29.3 63 -7.7 18.2
16:20 1028 30.36 857 25.31 -1.9 28.5 65 -7.7 18.2
16:25 1028 30.36 857 25.31 -1.5 29.4 62 -7.8 17.9
16:30 1027 30.33 857 25.31 -1.6 29.1 64 -7.5 18.4
16:35 1027 30.33 857 25.31 -1.9 28.6 65 -7.6 18.3
16:40 1027 30.33 857 25.31 -1.7 29 65 -7.5 18.5
16:45 1027 30.33 856 25.28 -1.8 28.7 63 -8 17.6
16:50 1027 30.33 856 25.28 -1.7 28.9 64 -7.6 18.3
16:55 1027 30.33 856 25.28 -1.9 28.6 64 -7.9 17.8
17:00 1027 30.33 856 25.28 -2.3 27.9 66 -7.7 18.1
17:05 1027 30.33 856 25.28 -2.3 27.8 63 -8.4 16.9
17:10 1027 30.33 856 25.28 -2.3 27.8 64 -8.3 17.1
17:15 1027 30.33 856 25.28 -2.5 27.6 64 -8.4 16.9
17:20 1027 30.33 856 25.28 -2 28.4 63 -8.1 17.4
17:25 1027 30.33 856 25.28 -1.9 28.6 61 -8.5 16.7
17:30 1027 30.33 856 25.28 -2.1 28.3 62 -8.5 16.7
17:35 1027 30.33 856 25.28 -2.3 27.9 64 -8.2 17.2
17:40 1027 30.33 856 25.28 -2.7 27.2 69 -7.5 18.5
17:45 1027 30.33 856 25.28 -3.3 26 72 -7.7 18.2
17:50 1027 30.33 856 25.28 -3.5 25.7 72 -7.8 18
17:55 1026 30.3 856 25.28 -3.6 25.5 74 -7.7 18.2
18:00 1026 30.3 856 25.28 -3.7 25.4 73 -7.8 17.9
18:05 1027 30.33 856 25.28 -3.4 25.9 73 -7.5 18.4
18:10 1027 30.33 856 25.28 -3.5 25.7 75 -7.4 18.7
18:15 1027 30.33 856 25.28 -3.9 24.9 78 -7.3 18.9
18:20 1026 30.3 856 25.28 -4.2 24.5 76 -7.8 18
18:25 1027 30.33 856 25.28 -3.9 24.9 75 -7.6 18.2
18:30 1026 30.3 856 25.28 -3.8 25.1 74 -7.7 18.1
18:35 1026 30.3 856 25.28 -4.1 24.7 76 -7.8 18
18:40 1026 30.3 856 25.28 -4.1 24.6 77 -7.7 18.2
18:45 1026 30.3 856 25.28 -4.4 24.1 78 -7.7 18.1
18:50 1026 30.3 856 25.28 -4.6 23.7 78 -7.9 17.8
18:55 1026 30.3 855 25.25 -4.8 23.4 79 -7.9 17.7
19:00 1026 30.3 855 25.25 -5.3 22.4 81 -8.1 17.4
19:05 1026 30.3 855 25.25 -5.7 21.7 83 -8.2 17.2
19:10 1026 30.3 855 25.25 -5.5 22 82 -8.1 17.4
19:15 1026 30.3 855 25.25 -5.3 22.5 79 -8.4 16.9
19:20 1026 30.3 855 25.25 -5.9 21.4 82 -8.5 16.8
19:25 1026 30.3 855 25.25 -6.5 20.4 85 -8.6 16.6
19:30 1026 30.3 855 25.25 -6.2 20.8 83 -8.7 16.4
19:35 1026 30.3 855 25.25 -5.4 22.3 81 -8.2 17.3
19:40 1026 30.3 855 25.25 -5.3 22.5 80 -8.2 17.2
19:45 1026 30.3 855 25.25 -5.3 22.4 81 -8.1 17.4
19:50 1026 30.3 855 25.25 -5.4 22.3 82 -8 17.6
19:55 1026 30.3 855 25.25 -5.5 22.1 81 -8.3 17
20:00 1026 30.3 855 25.25 -6 21.3 82 -8.5 16.7
20:05 1026 30.3 855 25.25 -6 21.2 84 -8.3 17
20:10 1026 30.3 855 25.25 -6 21.3 84 -8.3 17.1
20:15 1026 30.3 855 25.25 -6 21.2 83 -8.4 16.8
20:20 1026 30.3 855 25.25 -6.4 20.6 84 -8.7 16.4
20:25 1026 30.3 855 25.25 -6.5 20.3 85 -8.6 16.5
20:30 1026 30.3 855 25.25 -6 21.1 84 -8.3 17.1
20:35 1026 30.3 855 25.25 -5.9 21.5 83 -8.2 17.2
20:40 1025 30.27 855 25.25 -5.6 21.9 83 -8.1 17.4
20:45 1025 30.27 855 25.25 -5.4 22.3 82 -8 17.6
20:50 1025 30.27 854 25.22 -5.1 22.7 81 -8 17.6
20:55 1025 30.27 854 25.22 -5.3 22.5 80 -8.2 17.2
21:00 1025 30.27 854 25.22 -6.3 20.6 84 -8.6 16.5
21:05 1025 30.27 854 25.22 -6.5 20.2 86 -8.6 16.6
21:10 1025 30.27 854 25.22 -6.4 20.5 87 -8.2 17.2
21:15 1025 30.27 854 25.22 -5.4 22.2 79 -8.5 16.7
21:20 1025 30.27 854 25.22 -5.3 22.5 78 -8.5 16.8
21:25 1025 30.27 854 25.22 -5.4 22.3 78 -8.6 16.6
21:30 1025 30.27 854 25.22 -5.7 21.7 79 -8.8 16.2
21:35 1025 30.27 854 25.22 -6 21.2 81 -8.8 16.2
21:40 1025 30.27 854 25.22 -6.1 21 81 -8.8 16.1
21:45 1025 30.27 854 25.22 -6 21.2 80 -8.9 16
21:50 1025 30.27 854 25.22 -5.9 21.3 80 -8.8 16.1
21:55 1025 30.27 854 25.22 -5.5 22.1 80 -8.5 16.8
22:00 1025 30.27 854 25.22 -5.4 22.3 78 -8.7 16.4
22:05 1025 30.27 854 25.22 -5.3 22.4 77 -8.7 16.4
22:10 1025 30.27 854 25.22 -5.2 22.7 78 -8.4 16.9
22:15 1025 30.27 854 25.22 -5.2 22.7 78 -8.5 16.7
22:20 1025 30.27 854 25.22 -5.4 22.3 77 -8.9 16
22:25 1025 30.27 854 25.22 -5.9 21.5 78 -9.1 15.6
22:30 1024 30.24 854 25.22 -6.1 21.1 78 -9.4 15.1
22:35 1024 30.24 854 25.22 -6 21.2 78 -9.2 15.5
22:40 1024 30.24 854 25.22 -5.9 21.5 79 -8.9 15.9
22:45 1024 30.24 854 25.22 -6 21.1 80 -9 15.8
22:50 1024 30.24 854 25.22 -6.2 20.9 80 -9.1 15.6
22:55 1025 30.27 854 25.22 -5.7 21.7 76 -9.3 15.3
23:00 1024 30.24 854 25.22 -5.2 22.6 75 -9.1 15.7
23:05 1024 30.24 854 25.22 -5.2 22.6 75 -8.9 16
23:10 1024 30.24 854 25.22 -5.1 22.9 74 -9 15.8
23:15 1024 30.24 854 25.22 -5 23 74 -9 15.8
23:20 1024 30.24 854 25.22 -5.1 22.8 74 -9 15.8
23:25 1024 30.24 854 25.22 -5.5 22 76 -9.1 15.7
23:30 1024 30.24 854 25.22 -5.7 21.8 76 -9.2 15.4
23:35 1024 30.24 854 25.22 -5.9 21.4 77 -9.2 15.4
23:40 1024 30.24 854 25.22 -6 21.2 77 -9.4 15.2
23:45 1024 30.24 854 25.22 -5.9 21.3 77 -9.3 15.2
23:50 1024 30.24 854 25.22 -5.9 21.4 76 -9.4 15.1
23:55 1024 30.24 854 25.22 -5.7 21.8 76 -9.3 15.3
24:00 1024 30.24 854 25.22 -5.4 22.3 76 -9 15.7